sensor_id;sensor_type;location;lat;lon;timestamp;pressure;altitude;pressure_sealevel;temperature;humidity
4570;BME280;2297;51.442;6.996;2024-01-15T00:02:00;98956.03;;;2.45;59.86
4570;BME280;2297;51.442;6.996;2024-01-15T00:04:27;98962.81;;;2.65;59.31
4570;BME280;2297;51.442;6.996;2024-01-15T00:06:53;98952.13;;;2.90;58.60
4570;BME280;2297;51.442;6.996;2024-01-15T00:09:20;98947.56;;;3.09;58.12
4570;BME280;2297;51.442;6.996;2024-01-15T00:11:47;98952.09;;;2.93;58.28
4570;BME280;2297;51.442;6.996;2024-01-15T00:14:13;98954.91;;;2.74;58.55
4570;BME280;2297;51.442;6.996;2024-01-15T00:16:46;98948.97;;;2.60;58.96
4570;BME280;2297;51.442;6.996;2024-01-15T00:19:14;98947.13;;;2.68;58.65
4570;BME280;2297;51.442;6.996;2024-01-15T00:21:41;98923.03;;;2.47;59.00
4570;BME280;2297;51.442;6.996;2024-01-15T00:24:08;98916.00;;;2.56;59.01
4570;BME280;2297;51.442;6.996;2024-01-15T00:26:34;98913.19;;;2.74;58.60
4570;BME280;2297;51.442;6.996;2024-01-15T00:29:01;98921.03;;;2.70;58.39
4570;BME280;2297;51.442;6.996;2024-01-15T00:31:28;98920.03;;;2.83;58.27
4570;BME280;2297;51.442;6.996;2024-01-15T00:33:56;98919.44;;;2.58;58.54
4570;BME280;2297;51.442;6.996;2024-01-15T00:36:23;98916.28;;;3.06;57.76
4570;BME280;2297;51.442;6.996;2024-01-15T00:38:50;98918.97;;;3.01;57.50
4570;BME280;2297;51.442;6.996;2024-01-15T00:41:17;98917.63;;;2.66;58.39
4570;BME280;2297;51.442;6.996;2024-01-15T00:43:44;98924.44;;;2.79;58.46
4570;BME280;2297;51.442;6.996;2024-01-15T00:46:10;98921.00;;;2.74;58.50
4570;BME280;2297;51.442;6.996;2024-01-15T00:48:37;98919.13;;;2.89;58.11
4570;BME280;2297;51.442;6.996;2024-01-15T00:51:05;98916.78;;;2.62;58.83
4570;BME280;2297;51.442;6.996;2024-01-15T00:53:32;98915.91;;;2.62;59.07
4570;BME280;2297;51.442;6.996;2024-01-15T00:55:58;98910.31;;;2.96;58.50
4570;BME280;2297;51.442;6.996;2024-01-15T00:58:25;98915.66;;;2.87;58.03
4570;BME280;2297;51.442;6.996;2024-01-15T01:00:52;98913.97;;;2.83;58.42
4570;BME280;2297;51.442;6.996;2024-01-15T01:03:19;98910.22;;;3.05;57.89
4570;BME280;2297;51.442;6.996;2024-01-15T01:05:45;98902.56;;;2.91;57.93
4570;BME280;2297;51.442;6.996;2024-01-15T01:08:13;98900.00;;;2.87;58.22
4570;BME280;2297;51.442;6.996;2024-01-15T01:10:40;98905.06;;;2.99;57.84
4570;BME280;2297;51.442;6.996;2024-01-15T01:13:08;98908.59;;;2.95;58.20
4570;BME280;2297;51.442;6.996;2024-01-15T01:15:34;98903.41;;;2.92;58.11
4570;BME280;2297;51.442;6.996;2024-01-15T01:18:01;98900.59;;;3.10;57.54
4570;BME280;2297;51.442;6.996;2024-01-15T01:20:28;98899.59;;;3.21;57.06
4570;BME280;2297;51.442;6.996;2024-01-15T01:22:55;98898.13;;;2.98;57.31
4570;BME280;2297;51.442;6.996;2024-01-15T01:25:23;98887.47;;;3.17;57.15
4570;BME280;2297;51.442;6.996;2024-01-15T01:27:49;98900.91;;;2.84;58.01
4570;BME280;2297;51.442;6.996;2024-01-15T01:30:16;98895.31;;;3.13;57.12
4570;BME280;2297;51.442;6.996;2024-01-15T01:32:43;98887.88;;;2.83;57.69
4570;BME280;2297;51.442;6.996;2024-01-15T01:35:09;98889.63;;;2.80;58.16
4570;BME280;2297;51.442;6.996;2024-01-15T01:37:36;98891.97;;;3.04;57.91
4570;BME280;2297;51.442;6.996;2024-01-15T01:40:03;98899.47;;;3.27;56.86
4570;BME280;2297;51.442;6.996;2024-01-15T01:42:32;98889.41;;;2.99;57.81
4570;BME280;2297;51.442;6.996;2024-01-15T01:44:58;98897.13;;;3.08;57.36
4570;BME280;2297;51.442;6.996;2024-01-15T01:47:25;98890.84;;;3.25;57.07
4570;BME280;2297;51.442;6.996;2024-01-15T01:49:53;98896.19;;;3.15;57.03
4570;BME280;2297;51.442;6.996;2024-01-15T01:52:20;98895.28;;;3.15;57.31
4570;BME280;2297;51.442;6.996;2024-01-15T01:54:47;98892.19;;;2.87;57.94
4570;BME280;2297;51.442;6.996;2024-01-15T01:57:14;98896.44;;;2.94;57.66
4570;BME280;2297;51.442;6.996;2024-01-15T01:59:43;98895.94;;;3.34;56.75
4570;BME280;2297;51.442;6.996;2024-01-15T02:02:11;98892.59;;;3.23;56.46
4570;BME280;2297;51.442;6.996;2024-01-15T02:04:38;98899.09;;;2.89;57.52
4570;BME280;2297;51.442;6.996;2024-01-15T02:07:05;98903.94;;;3.20;57.06
4570;BME280;2297;51.442;6.996;2024-01-15T02:09:32;98903.72;;;2.64;58.27
4570;BME280;2297;51.442;6.996;2024-01-15T02:11:58;98898.38;;;2.76;57.98
4570;BME280;2297;51.442;6.996;2024-01-15T02:14:25;98898.94;;;3.02;57.57
4570;BME280;2297;51.442;6.996;2024-01-15T02:16:53;98910.06;;;3.19;56.81
4570;BME280;2297;51.442;6.996;2024-01-15T02:19:20;98910.31;;;2.96;57.61
4570;BME280;2297;51.442;6.996;2024-01-15T02:21:47;98911.41;;;2.79;58.23
4570;BME280;2297;51.442;6.996;2024-01-15T02:24:15;98907.75;;;2.93;57.45
4570;BME280;2297;51.442;6.996;2024-01-15T02:26:42;98909.78;;;2.64;58.54
4570;BME280;2297;51.442;6.996;2024-01-15T02:29:08;98909.56;;;2.88;58.17
4570;BME280;2297;51.442;6.996;2024-01-15T02:31:36;98902.25;;;3.16;57.45
4570;BME280;2297;51.442;6.996;2024-01-15T02:34:02;98906.88;;;2.94;57.19
4570;BME280;2297;51.442;6.996;2024-01-15T02:36:29;98909.75;;;2.69;57.84
4570;BME280;2297;51.442;6.996;2024-01-15T02:38:56;98913.31;;;2.60;58.31
4570;BME280;2297;51.442;6.996;2024-01-15T02:41:23;98903.34;;;2.98;57.82
4570;BME280;2297;51.442;6.996;2024-01-15T02:43:50;98911.44;;;2.75;58.10
4570;BME280;2297;51.442;6.996;2024-01-15T02:46:17;98905.97;;;2.96;57.59
4570;BME280;2297;51.442;6.996;2024-01-15T02:48:43;98905.28;;;2.80;57.80
4570;BME280;2297;51.442;6.996;2024-01-15T02:51:10;98896.41;;;2.97;57.78
4570;BME280;2297;51.442;6.996;2024-01-15T02:53:37;98892.22;;;2.84;58.17
4570;BME280;2297;51.442;6.996;2024-01-15T02:56:03;98901.16;;;2.62;58.71
4570;BME280;2297;51.442;6.996;2024-01-15T02:58:32;98887.84;;;2.86;58.33
4570;BME280;2297;51.442;6.996;2024-01-15T03:00:58;98882.56;;;2.90;57.73
4570;BME280;2297;51.442;6.996;2024-01-15T03:03:25;98896.00;;;2.55;58.84
4570;BME280;2297;51.442;6.996;2024-01-15T03:05:51;98886.34;;;2.66;58.43
4570;BME280;2297;51.442;6.996;2024-01-15T03:08:18;98888.06;;;2.65;58.14
4570;BME280;2297;51.442;6.996;2024-01-15T03:10:45;98880.94;;;2.81;57.96
4570;BME280;2297;51.442;6.996;2024-01-15T03:13:11;98887.16;;;2.70;58.19
4570;BME280;2297;51.442;6.996;2024-01-15T03:15:39;98892.31;;;2.76;58.08
4570;BME280;2297;51.442;6.996;2024-01-15T03:18:06;98883.19;;;3.12;57.34
4570;BME280;2297;51.442;6.996;2024-01-15T03:20:32;98880.81;;;2.94;57.15
4570;BME280;2297;51.442;6.996;2024-01-15T03:22:59;98882.38;;;3.07;57.08
4570;BME280;2297;51.442;6.996;2024-01-15T03:25:26;98879.28;;;2.76;58.07
4570;BME280;2297;51.442;6.996;2024-01-15T03:27:52;98882.59;;;2.89;57.92
4570;BME280;2297;51.442;6.996;2024-01-15T03:30:19;98887.81;;;2.89;57.88
4570;BME280;2297;51.442;6.996;2024-01-15T03:32:47;98886.91;;;2.90;57.91
4570;BME280;2297;51.442;6.996;2024-01-15T03:35:15;98889.81;;;2.65;57.65
4570;BME280;2297;51.442;6.996;2024-01-15T03:37:42;98892.56;;;2.51;58.68
4570;BME280;2297;51.442;6.996;2024-01-15T03:40:09;98888.34;;;2.39;58.71
4570;BME280;2297;51.442;6.996;2024-01-15T03:42:36;98887.28;;;2.57;58.33
4570;BME280;2297;51.442;6.996;2024-01-15T03:45:03;98881.34;;;2.47;58.46
4570;BME280;2297;51.442;6.996;2024-01-15T03:47:30;98887.47;;;2.40;58.96
4570;BME280;2297;51.442;6.996;2024-01-15T03:49:58;98880.94;;;2.81;57.87
4570;BME280;2297;51.442;6.996;2024-01-15T03:52:25;98883.50;;;2.86;57.73
4570;BME280;2297;51.442;6.996;2024-01-15T03:54:51;98879.19;;;2.80;57.77
4570;BME280;2297;51.442;6.996;2024-01-15T03:57:18;98885.03;;;3.01;57.07
4570;BME280;2297;51.442;6.996;2024-01-15T03:59:45;98881.16;;;2.63;57.83
4570;BME280;2297;51.442;6.996;2024-01-15T04:02:12;98887.88;;;2.83;57.81
4570;BME280;2297;51.442;6.996;2024-01-15T04:04:40;98880.59;;;3.09;57.12
4570;BME280;2297;51.442;6.996;2024-01-15T04:07:08;98871.88;;;3.10;56.77
4570;BME280;2297;51.442;6.996;2024-01-15T04:09:35;98884.19;;;2.99;56.86
4570;BME280;2297;51.442;6.996;2024-01-15T04:12:02;98869.34;;;3.04;56.87
4570;BME280;2297;51.442;6.996;2024-01-15T04:14:28;98869.25;;;3.12;56.82
4570;BME280;2297;51.442;6.996;2024-01-15T04:16:55;98859.88;;;2.97;57.12
4570;BME280;2297;51.442;6.996;2024-01-15T04:19:21;98861.63;;;2.98;57.06
4570;BME280;2297;51.442;6.996;2024-01-15T04:21:48;98856.03;;;3.26;56.58
4570;BME280;2297;51.442;6.996;2024-01-15T04:24:16;98845.50;;;3.30;56.21
4570;BME280;2297;51.442;6.996;2024-01-15T04:26:43;98856.16;;;3.17;56.42
4570;BME280;2297;51.442;6.996;2024-01-15T04:29:10;98835.94;;;3.29;56.16
4570;BME280;2297;51.442;6.996;2024-01-15T04:31:37;98846.78;;;3.00;56.31
4570;BME280;2297;51.442;6.996;2024-01-15T04:34:04;98847.09;;;2.78;57.77
4570;BME280;2297;51.442;6.996;2024-01-15T04:36:30;98837.28;;;2.96;57.23
4570;BME280;2297;51.442;6.996;2024-01-15T04:38:57;98845.00;;;3.05;57.02
4570;BME280;2297;51.442;6.996;2024-01-15T04:41:25;98823.19;;;3.12;56.68
4570;BME280;2297;51.442;6.996;2024-01-15T04:43:51;98842.19;;;3.21;56.22
4570;BME280;2297;51.442;6.996;2024-01-15T04:46:18;98841.59;;;2.98;57.11
4570;BME280;2297;51.442;6.996;2024-01-15T04:48:44;98842.53;;;2.94;57.35
4570;BME280;2297;51.442;6.996;2024-01-15T04:51:11;98841.25;;;3.25;56.37
4570;BME280;2297;51.442;6.996;2024-01-15T04:53:38;98842.00;;;3.33;56.28
4570;BME280;2297;51.442;6.996;2024-01-15T04:56:04;98835.69;;;2.86;57.39
4570;BME280;2297;51.442;6.996;2024-01-15T04:58:32;98833.06;;;2.86;57.33
4570;BME280;2297;51.442;6.996;2024-01-15T05:00:59;98842.97;;;2.59;57.83
4570;BME280;2297;51.442;6.996;2024-01-15T05:03:25;98826.97;;;2.87;57.58
4570;BME280;2297;51.442;6.996;2024-01-15T05:05:52;98818.09;;;3.03;57.03
4570;BME280;2297;51.442;6.996;2024-01-15T05:08:19;98828.44;;;2.36;58.65
4570;BME280;2297;51.442;6.996;2024-01-15T05:10:45;98832.06;;;2.96;57.36
4570;BME280;2297;51.442;6.996;2024-01-15T05:13:12;98826.94;;;2.90;57.23
4570;BME280;2297;51.442;6.996;2024-01-15T05:15:40;98830.50;;;2.84;57.21
4570;BME280;2297;51.442;6.996;2024-01-15T05:18:07;98821.84;;;2.80;57.32
4570;BME280;2297;51.442;6.996;2024-01-15T05:20:33;98820.94;;;2.83;57.46
4570;BME280;2297;51.442;6.996;2024-01-15T05:23:00;98813.75;;;3.02;56.70
4570;BME280;2297;51.442;6.996;2024-01-15T05:25:26;98814.25;;;2.62;57.58
4570;BME280;2297;51.442;6.996;2024-01-15T05:27:56;98810.00;;;2.55;57.93
4570;BME280;2297;51.442;6.996;2024-01-15T05:30:23;98809.13;;;2.53;57.73
4570;BME280;2297;51.442;6.996;2024-01-15T05:32:51;98791.38;;;2.84;57.32
4570;BME280;2297;51.442;6.996;2024-01-15T05:35:17;98797.22;;;3.02;57.10
4570;BME280;2297;51.442;6.996;2024-01-15T05:37:45;98800.53;;;3.14;56.40
4570;BME280;2297;51.442;6.996;2024-01-15T05:40:12;98799.03;;;2.95;56.90
4570;BME280;2297;51.442;6.996;2024-01-15T05:42:39;98806.03;;;2.93;57.00
4570;BME280;2297;51.442;6.996;2024-01-15T05:45:07;98803.78;;;2.67;57.32
4570;BME280;2297;51.442;6.996;2024-01-15T05:47:33;98804.31;;;2.92;56.91
4570;BME280;2297;51.442;6.996;2024-01-15T05:50:02;98800.22;;;2.72;57.38
4570;BME280;2297;51.442;6.996;2024-01-15T05:52:29;98797.03;;;3.15;56.53
4570;BME280;2297;51.442;6.996;2024-01-15T05:54:55;98806.31;;;2.71;57.54
4570;BME280;2297;51.442;6.996;2024-01-15T05:57:22;98795.56;;;2.96;57.09
4570;BME280;2297;51.442;6.996;2024-01-15T05:59:49;98804.91;;;3.12;56.77
4570;BME280;2297;51.442;6.996;2024-01-15T06:02:15;98801.03;;;2.77;57.33
4570;BME280;2297;51.442;6.996;2024-01-15T06:04:42;98802.53;;;2.95;56.83
4570;BME280;2297;51.442;6.996;2024-01-15T06:07:10;98797.25;;;3.00;57.16
4570;BME280;2297;51.442;6.996;2024-01-15T06:09:36;98783.66;;;2.76;57.44
4570;BME280;2297;51.442;6.996;2024-01-15T06:12:04;98795.25;;;3.18;56.91
4570;BME280;2297;51.442;6.996;2024-01-15T06:14:31;98788.13;;;3.29;56.41
4570;BME280;2297;51.442;6.996;2024-01-15T06:16:57;98785.88;;;3.04;56.67
4570;BME280;2297;51.442;6.996;2024-01-15T06:19:24;98792.41;;;2.72;57.82
4570;BME280;2297;51.442;6.996;2024-01-15T06:21:50;98795.56;;;2.96;57.46
4570;BME280;2297;51.442;6.996;2024-01-15T06:24:18;98786.97;;;2.88;57.60
4570;BME280;2297;51.442;6.996;2024-01-15T06:26:46;98788.28;;;3.20;56.58
4570;BME280;2297;51.442;6.996;2024-01-15T06:29:12;98782.91;;;3.29;56.07
4570;BME280;2297;51.442;6.996;2024-01-15T06:31:39;98788.91;;;3.36;56.25
4570;BME280;2297;51.442;6.996;2024-01-15T06:34:06;98779.44;;;3.27;56.35
4570;BME280;2297;51.442;6.996;2024-01-15T06:36:32;98774.16;;;3.33;56.03
4570;BME280;2297;51.442;6.996;2024-01-15T06:38:59;98783.41;;;2.95;56.70
4570;BME280;2297;51.442;6.996;2024-01-15T06:41:27;98785.50;;;2.68;57.81
4570;BME280;2297;51.442;6.996;2024-01-15T06:43:53;98774.78;;;2.90;57.29
4570;BME280;2297;51.442;6.996;2024-01-15T06:46:21;98778.28;;;2.89;57.22
4570;BME280;2297;51.442;6.996;2024-01-15T06:48:48;98774.16;;;3.33;56.48
4570;BME280;2297;51.442;6.996;2024-01-15T06:51:15;98775.97;;;3.28;56.38
4570;BME280;2297;51.442;6.996;2024-01-15T06:53:42;98774.63;;;2.99;57.30
4570;BME280;2297;51.442;6.996;2024-01-15T06:56:09;98778.53;;;3.29;56.35
4570;BME280;2297;51.442;6.996;2024-01-15T06:58:37;98787.38;;;3.22;56.23
4570;BME280;2297;51.442;6.996;2024-01-15T07:01:04;98780.56;;;3.10;56.67
4570;BME280;2297;51.442;6.996;2024-01-15T07:03:31;98781.31;;;3.19;56.43
4570;BME280;2297;51.442;6.996;2024-01-15T07:05:58;98779.91;;;2.96;57.19
4570;BME280;2297;51.442;6.996;2024-01-15T07:08:24;98777.34;;;2.93;57.11
4570;BME280;2297;51.442;6.996;2024-01-15T07:10:51;98787.59;;;3.05;56.71
4570;BME280;2297;51.442;6.996;2024-01-15T07:13:18;98783.84;;;3.25;56.24
4570;BME280;2297;51.442;6.996;2024-01-15T07:15:46;98786.31;;;3.34;56.06
4570;BME280;2297;51.442;6.996;2024-01-15T07:18:13;98778.84;;;3.09;56.48
4570;BME280;2297;51.442;6.996;2024-01-15T07:20:39;98788.34;;;3.13;56.50
4570;BME280;2297;51.442;6.996;2024-01-15T07:23:06;98785.63;;;3.21;56.23
4570;BME280;2297;51.442;6.996;2024-01-15T07:25:33;98783.00;;;3.23;56.24
4570;BME280;2297;51.442;6.996;2024-01-15T07:27:59;98781.72;;;2.91;56.58
4570;BME280;2297;51.442;6.996;2024-01-15T07:30:26;98777.03;;;3.14;56.28
4570;BME280;2297;51.442;6.996;2024-01-15T07:32:54;98778.63;;;3.25;56.08
4570;BME280;2297;51.442;6.996;2024-01-15T07:35:21;98786.88;;;2.95;56.87
4570;BME280;2297;51.442;6.996;2024-01-15T07:37:47;98776.28;;;3.06;57.15
4570;BME280;2297;51.442;6.996;2024-01-15T07:40:14;98774.13;;;2.75;57.88
4570;BME280;2297;51.442;6.996;2024-01-15T07:42:41;98781.19;;;3.28;56.91
4570;BME280;2297;51.442;6.996;2024-01-15T07:45:08;98780.56;;;3.12;56.93
4570;BME280;2297;51.442;6.996;2024-01-15T07:47:35;98783.13;;;3.13;57.14
4570;BME280;2297;51.442;6.996;2024-01-15T07:50:03;98776.47;;;2.94;57.75
4570;BME280;2297;51.442;6.996;2024-01-15T07:52:30;98770.16;;;3.09;57.02
4570;BME280;2297;51.442;6.996;2024-01-15T07:54:57;98776.63;;;2.81;58.37
4570;BME280;2297;51.442;6.996;2024-01-15T07:57:25;98787.47;;;3.14;57.36
4570;BME280;2297;51.442;6.996;2024-01-15T07:59:52;98776.56;;;2.88;57.91
4570;BME280;2297;51.442;6.996;2024-01-15T08:02:19;98786.66;;;3.11;57.81
4570;BME280;2297;51.442;6.996;2024-01-15T08:04:45;98778.13;;;3.00;57.89
4570;BME280;2297;51.442;6.996;2024-01-15T08:07:13;98795.94;;;2.68;58.69
4570;BME280;2297;51.442;6.996;2024-01-15T08:09:40;98779.88;;;2.97;58.60
4570;BME280;2297;51.442;6.996;2024-01-15T08:15:14;98774.78;;;2.90;58.57
4570;BME280;2297;51.442;6.996;2024-01-15T08:17:40;98755.09;;;2.67;58.57
4570;BME280;2297;51.442;6.996;2024-01-15T08:20:07;98766.41;;;2.66;58.84
4570;BME280;2297;51.442;6.996;2024-01-15T08:22:38;98760.97;;;2.85;58.62
4570;BME280;2297;51.442;6.996;2024-01-15T08:25:05;98763.88;;;2.61;59.53
4570;BME280;2297;51.442;6.996;2024-01-15T08:27:32;98766.19;;;2.85;59.11
4570;BME280;2297;51.442;6.996;2024-01-15T08:29:58;98772.16;;;2.91;58.15
4570;BME280;2297;51.442;6.996;2024-01-15T08:32:25;98763.72;;;2.72;58.72
4570;BME280;2297;51.442;6.996;2024-01-15T08:34:52;98766.16;;;2.83;58.73
4570;BME280;2297;51.442;6.996;2024-01-15T08:37:18;98772.97;;;2.95;58.24
4570;BME280;2297;51.442;6.996;2024-01-15T08:39:46;98769.91;;;2.65;58.57
4570;BME280;2297;51.442;6.996;2024-01-15T08:42:13;98774.91;;;2.80;58.30
4570;BME280;2297;51.442;6.996;2024-01-15T08:44:39;98777.31;;;2.94;58.38
4570;BME280;2297;51.442;6.996;2024-01-15T08:47:08;98768.81;;;2.80;58.85
4570;BME280;2297;51.442;6.996;2024-01-15T08:49:35;98775.13;;;2.62;67.02
4570;BME280;2297;51.442;6.996;2024-01-15T08:52:02;98788.53;;;2.31;60.08
4570;BME280;2297;51.442;6.996;2024-01-15T08:54:28;98785.53;;;2.65;59.83
4570;BME280;2297;51.442;6.996;2024-01-15T08:56:56;98796.72;;;2.73;59.50
4570;BME280;2297;51.442;6.996;2024-01-15T08:59:23;98793.66;;;2.40;60.02
4570;BME280;2297;51.442;6.996;2024-01-15T09:01:51;98795.25;;;2.52;60.16
4570;BME280;2297;51.442;6.996;2024-01-15T09:04:17;98803.94;;;2.54;60.28
4570;BME280;2297;51.442;6.996;2024-01-15T09:06:45;98793.72;;;2.34;60.21
4570;BME280;2297;51.442;6.996;2024-01-15T09:09:12;98801.63;;;2.28;60.60
4570;BME280;2297;51.442;6.996;2024-01-15T09:11:39;98798.03;;;2.38;60.48
4570;BME280;2297;51.442;6.996;2024-01-15T09:14:07;98804.88;;;2.45;60.50
4570;BME280;2297;51.442;6.996;2024-01-15T09:16:34;98803.94;;;2.51;60.42
4570;BME280;2297;51.442;6.996;2024-01-15T09:19:01;98815.28;;;2.48;60.80
4570;BME280;2297;51.442;6.996;2024-01-15T09:21:28;98817.69;;;2.64;60.77
4570;BME280;2297;51.442;6.996;2024-01-15T09:23:55;98818.50;;;2.69;60.51
4570;BME280;2297;51.442;6.996;2024-01-15T09:26:21;98805.88;;;2.34;60.81
4570;BME280;2297;51.442;6.996;2024-01-15T09:28:49;98813.16;;;2.05;61.99
4570;BME280;2297;51.442;6.996;2024-01-15T09:31:17;98797.88;;;2.51;61.79
4570;BME280;2297;51.442;6.996;2024-01-15T09:33:45;98806.63;;;2.46;60.85
4570;BME280;2297;51.442;6.996;2024-01-15T09:36:11;98811.84;;;2.46;61.48
4570;BME280;2297;51.442;6.996;2024-01-15T09:38:40;98804.06;;;2.42;61.17
4570;BME280;2297;51.442;6.996;2024-01-15T09:41:07;98803.88;;;2.57;61.09
4570;BME280;2297;51.442;6.996;2024-01-15T09:43:34;98805.69;;;2.52;61.00
4570;BME280;2297;51.442;6.996;2024-01-15T09:46:01;98810.16;;;2.39;60.56
4570;BME280;2297;51.442;6.996;2024-01-15T09:48:29;98819.53;;;2.56;60.26
4570;BME280;2297;51.442;6.996;2024-01-15T09:50:57;98827.03;;;2.80;59.90
4570;BME280;2297;51.442;6.996;2024-01-15T09:53:25;98818.94;;;3.04;59.40
4570;BME280;2297;51.442;6.996;2024-01-15T09:55:52;98822.06;;;2.62;59.32
4570;BME280;2297;51.442;6.996;2024-01-15T09:58:19;98822.81;;;2.73;59.52
4570;BME280;2297;51.442;6.996;2024-01-15T10:00:47;98817.53;;;2.79;59.18
4570;BME280;2297;51.442;6.996;2024-01-15T10:03:15;98826.25;;;2.74;59.24
4570;BME280;2297;51.442;6.996;2024-01-15T10:05:43;98814.78;;;2.90;58.90
4570;BME280;2297;51.442;6.996;2024-01-15T10:08:10;98822.25;;;2.46;58.72
4570;BME280;2297;51.442;6.996;2024-01-15T10:10:37;98824.41;;;2.84;58.89
4570;BME280;2297;51.442;6.996;2024-01-15T10:13:04;98821.84;;;2.80;58.98
4570;BME280;2297;51.442;6.996;2024-01-15T10:15:34;98813.13;;;2.85;58.64
4570;BME280;2297;51.442;6.996;2024-01-15T10:18:02;98803.56;;;2.84;58.66
4570;BME280;2297;51.442;6.996;2024-01-15T10:20:28;98804.91;;;3.12;58.41
4570;BME280;2297;51.442;6.996;2024-01-15T10:22:57;98804.56;;;2.73;58.58
4570;BME280;2297;51.442;6.996;2024-01-15T10:25:24;98800.72;;;2.99;58.45
4570;BME280;2297;51.442;6.996;2024-01-15T10:27:59;98799.16;;;2.89;57.95
4570;BME280;2297;51.442;6.996;2024-01-15T10:30:27;98792.72;;;3.13;57.87
4570;BME280;2297;51.442;6.996;2024-01-15T10:32:57;98804.00;;;3.13;57.65
4570;BME280;2297;51.442;6.996;2024-01-15T10:35:27;98807.34;;;3.25;57.16
4570;BME280;2297;51.442;6.996;2024-01-15T10:37:54;98794.34;;;3.20;57.08
4570;BME280;2297;51.442;6.996;2024-01-15T10:40:22;98796.75;;;3.34;56.61
4570;BME280;2297;51.442;6.996;2024-01-15T10:42:49;98806.28;;;3.37;56.55
4570;BME280;2297;51.442;6.996;2024-01-15T10:45:16;98812.47;;;3.29;56.71
4570;BME280;2297;51.442;6.996;2024-01-15T10:47:43;98817.81;;;3.20;56.48
4570;BME280;2297;51.442;6.996;2024-01-15T10:50:10;98809.47;;;2.95;57.11
4570;BME280;2297;51.442;6.996;2024-01-15T10:52:38;98803.06;;;3.19;56.23
4570;BME280;2297;51.442;6.996;2024-01-15T10:55:06;98807.66;;;3.00;56.62
4570;BME280;2297;51.442;6.996;2024-01-15T10:57:35;98798.13;;;3.01;57.15
4570;BME280;2297;51.442;6.996;2024-01-15T11:00:04;98799.59;;;3.19;56.50
4570;BME280;2297;51.442;6.996;2024-01-15T11:02:31;98804.06;;;3.10;56.79
4570;BME280;2297;51.442;6.996;2024-01-15T11:04:59;98809.66;;;2.83;57.23
4570;BME280;2297;51.442;6.996;2024-01-15T11:07:27;98813.34;;;2.66;57.60
4570;BME280;2297;51.442;6.996;2024-01-15T11:09:53;98811.53;;;2.71;57.51
4570;BME280;2297;51.442;6.996;2024-01-15T11:12:20;98813.06;;;2.88;57.26
4570;BME280;2297;51.442;6.996;2024-01-15T11:14:48;98816.13;;;3.18;56.73
4570;BME280;2297;51.442;6.996;2024-01-15T11:17:16;98812.56;;;3.23;56.06
4570;BME280;2297;51.442;6.996;2024-01-15T11:19:44;98814.66;;;2.98;56.52
4570;BME280;2297;51.442;6.996;2024-01-15T11:22:48;98824.38;;;2.87;57.29
4570;BME280;2297;51.442;6.996;2024-01-15T11:25:17;98813.81;;;2.96;56.41
4570;BME280;2297;51.442;6.996;2024-01-15T11:27:46;98805.13;;;2.95;56.75
4570;BME280;2297;51.442;6.996;2024-01-15T11:30:17;98819.84;;;3.01;56.69
4570;BME280;2297;51.442;6.996;2024-01-15T11:32:45;98825.88;;;2.33;57.88
4570;BME280;2297;51.442;6.996;2024-01-15T11:35:13;98825.47;;;2.70;58.12
4570;BME280;2297;51.442;6.996;2024-01-15T11:37:58;98809.44;;;2.96;57.39
4570;BME280;2297;51.442;6.996;2024-01-15T11:40:39;98811.97;;;3.03;57.26
4570;BME280;2297;51.442;6.996;2024-01-15T11:43:08;98822.06;;;2.62;58.09
4570;BME280;2297;51.442;6.996;2024-01-15T11:45:37;98807.47;;;3.15;57.15
4570;BME280;2297;51.442;6.996;2024-01-15T11:48:14;98814.44;;;3.13;56.66
4570;BME280;2297;51.442;6.996;2024-01-15T11:50:43;98801.97;;;3.34;56.34
4570;BME280;2297;51.442;6.996;2024-01-15T11:53:16;98803.63;;;3.40;56.15
4570;BME280;2297;51.442;6.996;2024-01-15T11:55:45;98805.16;;;3.53;55.74
4570;BME280;2297;51.442;6.996;2024-01-15T11:58:14;98797.16;;;3.06;56.59
4570;BME280;2297;51.442;6.996;2024-01-15T12:00:44;98799.22;;;2.83;57.22
4570;BME280;2297;51.442;6.996;2024-01-15T12:03:11;98789.94;;;2.61;58.06
4570;BME280;2297;51.442;6.996;2024-01-15T12:05:38;98799.50;;;2.61;58.29
4570;BME280;2297;51.442;6.996;2024-01-15T12:08:07;98797.34;;;2.94;57.49
4570;BME280;2297;51.442;6.996;2024-01-15T12:10:36;98800.44;;;3.21;56.77
4570;BME280;2297;51.442;6.996;2024-01-15T12:13:05;98805.00;;;3.06;56.87
4570;BME280;2297;51.442;6.996;2024-01-15T12:15:32;98804.81;;;3.19;56.70
4570;BME280;2297;51.442;6.996;2024-01-15T12:18:01;98803.91;;;3.21;56.64
4570;BME280;2297;51.442;6.996;2024-01-15T12:20:29;98808.16;;;3.28;56.36
4570;BME280;2297;51.442;6.996;2024-01-15T12:22:55;98801.13;;;3.32;56.21
4570;BME280;2297;51.442;6.996;2024-01-15T12:25:22;98796.06;;;3.21;56.31
4570;BME280;2297;51.442;6.996;2024-01-15T12:27:51;98803.72;;;3.32;55.75
4570;BME280;2297;51.442;6.996;2024-01-15T12:30:18;98802.78;;;2.74;56.92
4570;BME280;2297;51.442;6.996;2024-01-15T12:32:45;98799.69;;;3.12;56.45
4570;BME280;2297;51.442;6.996;2024-01-15T12:35:14;98800.28;;;3.31;56.02
4570;BME280;2297;51.442;6.996;2024-01-15T12:37:43;98799.22;;;3.43;55.63
4570;BME280;2297;51.442;6.996;2024-01-15T12:40:12;98807.06;;;3.40;55.91
4570;BME280;2297;51.442;6.996;2024-01-15T12:42:40;98803.31;;;3.02;57.13
4570;BME280;2297;51.442;6.996;2024-01-15T12:45:09;98814.56;;;3.04;57.31
4570;BME280;2297;51.442;6.996;2024-01-15T12:47:36;98815.97;;;3.30;57.39
4570;BME280;2297;51.442;6.996;2024-01-15T12:50:06;98817.91;;;3.15;57.43
4570;BME280;2297;51.442;6.996;2024-01-15T12:52:34;98812.50;;;3.28;57.46
4570;BME280;2297;51.442;6.996;2024-01-15T12:55:03;98814.16;;;3.35;57.14
4570;BME280;2297;51.442;6.996;2024-01-15T12:57:30;98817.63;;;3.34;57.50
4570;BME280;2297;51.442;6.996;2024-01-15T12:59:57;98814.00;;;3.44;57.61
4570;BME280;2297;51.442;6.996;2024-01-15T13:02:24;98811.19;;;2.97;58.00
4570;BME280;2297;51.442;6.996;2024-01-15T13:04:51;98818.72;;;3.19;58.09
4570;BME280;2297;51.442;6.996;2024-01-15T13:07:19;98824.34;;;2.88;57.94
4570;BME280;2297;51.442;6.996;2024-01-15T13:09:47;98825.97;;;2.98;57.79
4570;BME280;2297;51.442;6.996;2024-01-15T13:12:45;98835.72;;;2.83;58.20
4570;BME280;2297;51.442;6.996;2024-01-15T13:15:12;98834.97;;;2.74;57.63
4570;BME280;2297;51.442;6.996;2024-01-15T13:17:38;98841.56;;;3.02;57.25
4570;BME280;2297;51.442;6.996;2024-01-15T13:20:07;98843.88;;;3.25;56.44
4570;BME280;2297;51.442;6.996;2024-01-15T13:22:33;98833.19;;;3.40;56.29
4570;BME280;2297;51.442;6.996;2024-01-15T13:25:02;98833.28;;;3.34;56.39
4570;BME280;2297;51.442;6.996;2024-01-15T13:27:29;98833.94;;;3.48;55.96
4570;BME280;2297;51.442;6.996;2024-01-15T13:29:56;98826.56;;;3.18;56.43
4570;BME280;2297;51.442;6.996;2024-01-15T13:32:24;98823.00;;;3.25;56.18
4570;BME280;2297;51.442;6.996;2024-01-15T13:34:52;98832.31;;;3.41;56.30
4570;BME280;2297;51.442;6.996;2024-01-15T13:37:19;98843.72;;;3.34;56.04